Terminal Aerodrome Forecast
Issued by NWS

Home | Current Version | Previous Version | Text Only | Print | Product List | Glossary Off
Versions: 1 2 3 4 5 6 7 8 9 10 11 12

000
FTUS43 KPAH 031120
TAFCGI
TAF
KCGI 031120Z 0312/0412 07004KT P6SM FEW100 BKN200
     FM040000 05004KT P6SM OVC100
      TEMPO 0402/0406 -RA
     FM040600 07007KT 4SM -RA BR SCT010 OVC030=

USA.gov is the U.S. government's official web portal to all federal, state and local government web resources and services.